Time;durP1;ratioP1;P1;durP2;ratioP2;P2;SDS_P1;SDS_P2;PMS_P1;PMS_P2;Temp;Humidity;BMP_temperature;BMP_pressure;BME280_temperature;BME280_humidity;BME280_pressure;Samples;Min_cycle;Max_cycle;Signal;HPM_P1;HPM_P2
2023/09/14 00:00:04;;;;;;;5.30;3.03;;;16.30;79.10;;;;;;4941597;29;20098;-94
2023/09/14 00:02:31;;;;;;;5.13;3.03;;;16.20;79.30;;;;;;4941642;29;20052;-96
2023/09/14 00:04:57;;;;;;;5.93;2.92;;;16.20;79.30;;;;;;4941423;29;20389;-95
2023/09/14 00:07:22;;;;;;;5.25;2.95;;;16.20;79.70;;;;;;4941113;29;20039;-95
2023/09/14 00:09:48;;;;;;;6.95;3.53;;;16.20;79.70;;;;;;4941124;29;20051;-95
2023/09/14 00:12:14;;;;;;;6.82;2.90;;;16.30;80.00;;;;;;4941264;29;20043;-95
2023/09/14 00:14:39;;;;;;;7.43;3.30;;;16.20;80.10;;;;;;4940988;29;20109;-95
2023/09/14 00:17:14;;;;;;;6.80;3.35;;;16.20;80.30;;;;;;4941317;29;20054;-94
2023/09/14 00:19:39;;;;;;;8.32;3.30;;;16.20;80.40;;;;;;4942424;29;20043;-95
2023/09/14 00:22:05;;;;;;;7.10;3.38;;;16.30;80.20;;;;;;4941201;29;20040;-95
2023/09/14 00:24:31;;;;;;;5.82;2.70;;;16.30;80.20;;;;;;4940749;29;20075;-95
2023/09/14 00:26:56;;;;;;;5.97;2.70;;;16.20;80.30;;;;;;4940681;29;20050;-95
2023/09/14 00:29:22;;;;;;;6.35;2.40;;;16.20;80.30;;;;;;4941165;29;20050;-95
2023/09/14 00:31:48;;;;;;;6.35;2.78;;;16.20;80.10;;;;;;4941465;29;20070;-95
2023/09/14 00:34:13;;;;;;;5.70;2.55;;;16.20;80.10;;;;;;4941528;29;20382;-95
2023/09/14 00:36:39;;;;;;;5.95;2.80;;;16.10;80.20;;;;;;4942007;29;20125;-95
2023/09/14 00:39:13;;;;;;;4.47;2.95;;;16.10;80.30;;;;;;4940815;29;20047;-95
2023/09/14 00:41:38;;;;;;;6.05;3.45;;;15.90;80.40;;;;;;4940707;29;20156;-96
2023/09/14 00:44:04;;;;;;;7.13;3.08;;;16.00;80.40;;;;;;4940236;29;20103;-95
2023/09/14 00:46:30;;;;;;;4.65;2.40;;;15.90;80.40;;;;;;4940486;29;20043;-95
2023/09/14 00:49:24;;;;;;;4.40;2.33;;;15.90;80.40;;;;;;4940492;29;20047;-95
2023/09/14 00:51:50;;;;;;;;;;;15.80;80.50;;;;;;4940876;29;20046;-95
2023/09/14 00:54:16;;;;;;;4.22;1.75;;;16.10;80.00;;;;;;4940397;29;19922;-94
2023/09/14 00:56:42;;;;;;;6.20;2.63;;;16.00;79.60;;;;;;4940268;29;20198;-95
2023/09/14 00:59:08;;;;;;;3.50;1.90;;;15.90;79.70;;;;;;4940467;29;20130;-94
2023/09/14 01:01:41;;;;;;;4.88;2.58;;;15.80;79.70;;;;;;4940344;29;20508;-95
2023/09/14 01:04:07;;;;;;;5.65;2.72;;;15.70;80.00;;;;;;4940088;29;20054;-95
2023/09/14 01:06:46;;;;;;;5.15;3.17;;;15.80;80.10;;;;;;4940626;29;20051;-95
2023/09/14 01:09:14;;;;;;;4.95;2.75;;;15.60;80.40;;;;;;4956213;29;20054;-95
2023/09/14 01:11:40;;;;;;;5.00;2.85;;;15.70;80.50;;;;;;4956007;29;20043;-95
2023/09/14 01:14:31;;;;;;;4.65;2.63;;;15.80;80.60;;;;;;4942993;28;20396;-95
2023/09/14 01:17:26;;;;;;;6.05;2.90;;;15.60;80.90;;;;;;4959432;28;20053;-95
2023/09/14 01:20:03;;;;;;;4.60;2.65;;;15.70;80.80;;;;;;4943113;28;20051;-96
2023/09/14 01:23:00;;;;;;;6.97;3.40;;;15.80;80.80;;;;;;4942892;28;20133;-95
2023/09/14 01:25:41;;;;;;;5.82;3.00;;;15.70;81.40;;;;;;4943179;28;20554;-95
2023/09/14 01:28:14;;;;;;;3.90;2.90;;;15.80;80.80;;;;;;4942641;28;20619;-95
2023/09/14 01:30:42;;;;;;;4.90;2.67;;;15.80;80.80;;;;;;4943136;28;20085;-95
2023/09/14 01:33:14;;;;;;;5.97;3.05;;;15.90;80.80;;;;;;4943316;28;20286;-95
2023/09/14 01:36:19;;;;;;;5.30;2.80;;;15.80;80.70;;;;;;4943841;28;20050;-94
2023/09/14 01:38:55;;;;;;;6.03;3.15;;;15.80;80.80;;;;;;4943462;28;20476;-95
2023/09/14 01:41:34;;;;;;;7.57;2.80;;;15.80;80.60;;;;;;4943326;28;20122;-95
2023/09/14 01:44:01;;;;;;;5.53;2.83;;;15.80;80.70;;;;;;4943771;28;20046;-95
2023/09/14 01:46:27;;;;;;;5.80;3.35;;;15.80;80.50;;;;;;4942870;28;20043;-96
2023/09/14 01:48:53;;;;;;;7.53;3.53;;;15.80;80.50;;;;;;4942803;28;20039;-95
2023/09/14 01:51:26;;;;;;;8.95;3.33;;;15.80;80.60;;;;;;4943027;28;20043;-95
2023/09/14 01:53:52;;;;;;;6.10;3.35;;;15.80;80.80;;;;;;4942457;28;20042;-96
2023/09/14 01:56:21;;;;;;;4.85;2.70;;;15.80;80.60;;;;;;4942716;28;20097;-95
2023/09/14 01:58:47;;;;;;;6.78;3.25;;;15.80;80.80;;;;;;4942611;28;20077;-95
2023/09/14 02:01:36;;;;;;;7.57;3.42;;;15.80;80.80;;;;;;4942651;28;20042;-95
2023/09/14 02:04:18;;;;;;;8.18;3.03;;;15.80;81.00;;;;;;4942938;28;20082;-96
2023/09/14 02:06:44;;;;;;;5.85;3.28;;;15.80;80.90;;;;;;4944815;28;20505;-96
2023/09/14 02:09:35;;;;;;;5.88;2.80;;;15.90;80.70;;;;;;4943937;28;20115;-95
2023/09/14 02:12:20;;;;;;;5.60;3.47;;;15.70;80.90;;;;;;4942967;28;20146;-95
2023/09/14 02:14:46;;;;;;;6.90;2.90;;;15.70;80.90;;;;;;4942490;28;20069;-95
2023/09/14 02:17:25;;;;;;;6.55;3.20;;;15.80;80.80;;;;;;4942651;28;20054;-95
2023/09/14 02:19:52;;;;;;;7.97;3.30;;;15.70;81.00;;;;;;4942372;28;20042;-95
2023/09/14 02:22:31;;;;;;;6.57;3.38;;;15.80;80.80;;;;;;4942682;28;20055;-95
2023/09/14 02:24:59;;;;;;;10.15;3.67;;;15.70;80.90;;;;;;4942727;28;20501;-95
2023/09/14 02:27:25;;;;;;;7.75;3.35;;;15.80;80.70;;;;;;4942475;28;20066;-95
2023/09/14 02:29:54;;;;;;;6.80;2.78;;;15.90;80.80;;;;;;4942327;28;20488;-96
2023/09/14 02:32:28;;;;;;;6.85;3.03;;;15.80;80.70;;;;;;4942052;28;20043;-95
2023/09/14 02:34:54;;;;;;;5.00;2.78;;;15.80;80.80;;;;;;4941967;28;20070;-95
2023/09/14 02:37:22;;;;;;;4.22;2.95;;;15.80;80.60;;;;;;4942062;28;20089;-95
2023/09/14 02:39:47;;;;;;;5.82;3.10;;;15.70;80.70;;;;;;4942098;28;20134;-95
2023/09/14 02:42:14;;;;;;;6.35;3.33;;;15.70;80.80;;;;;;4942725;28;20414;-95
2023/09/14 02:44:41;;;;;;;6.57;3.40;;;15.70;80.90;;;;;;4942243;28;20078;-95
2023/09/14 02:47:09;;;;;;;5.63;3.10;;;15.60;80.90;;;;;;4942454;28;20043;-95
2023/09/14 02:49:35;;;;;;;5.80;3.10;;;15.60;81.00;;;;;;4942050;28;20082;-95
2023/09/14 02:52:02;;;;;;;5.88;3.10;;;15.70;81.00;;;;;;4941752;28;20101;-95
2023/09/14 02:54:27;;;;;;;7.03;3.33;;;15.60;80.90;;;;;;4942243;28;20053;-95
2023/09/14 02:56:56;;;;;;;6.28;2.97;;;15.70;81.00;;;;;;4942174;28;20042;-96
2023/09/14 02:59:32;;;;;;;6.72;3.45;;;15.60;81.10;;;;;;4942106;28;20045;-96
2023/09/14 03:01:58;;;;;;;6.03;3.00;;;15.50;81.10;;;;;;4941819;28;20481;-96
2023/09/14 03:04:24;;;;;;;5.55;3.13;;;15.70;81.00;;;;;;4941519;28;20137;-95
2023/09/14 03:07:04;;;;;;;5.35;3.35;;;15.70;81.00;;;;;;4944583;28;20046;-95
2023/09/14 03:09:29;;;;;;;5.70;2.72;;;15.50;81.20;;;;;;4945334;28;20078;-95
2023/09/14 03:12:20;;;;;;;3.83;2.88;;;15.70;81.00;;;;;;4946162;28;20496;-95
2023/09/14 03:14:46;;;;;;;4.90;3.40;;;15.50;81.10;;;;;;4942108;29;20095;-95
2023/09/14 03:17:11;;;;;;;5.60;3.00;;;15.70;80.90;;;;;;4941866;29;20516;-94
2023/09/14 03:19:37;;;;;;;5.20;3.15;;;15.70;81.00;;;;;;4941887;29;20126;-95
2023/09/14 03:22:17;;;;;;;6.65;3.42;;;15.60;81.00;;;;;;4942233;29;20429;-95
2023/09/14 03:24:42;;;;;;;5.63;2.95;;;15.50;81.20;;;;;;4942490;29;20047;-94
2023/09/14 03:27:24;;;;;;;6.55;3.25;;;15.60;80.90;;;;;;4941833;29;20130;-95
2023/09/14 03:29:50;;;;;;;6.00;3.33;;;15.60;81.10;;;;;;4942023;29;20102;-95
2023/09/14 03:32:22;;;;;;;4.82;2.60;;;15.60;80.70;;;;;;4942266;29;20047;-95
2023/09/14 03:34:48;;;;;;;9.20;3.35;;;15.50;81.00;;;;;;4942804;29;20047;-95
2023/09/14 03:37:14;;;;;;;9.25;3.40;;;15.60;80.80;;;;;;4941612;29;20123;-94
2023/09/14 03:39:39;;;;;;;8.57;3.30;;;15.60;80.90;;;;;;4941657;29;20043;-94
2023/09/14 03:42:05;;;;;;;6.93;3.45;;;15.60;80.90;;;;;;4942238;29;20054;-94
2023/09/14 03:44:31;;;;;;;4.75;3.25;;;15.60;80.80;;;;;;4941889;29;20043;-94
2023/09/14 03:46:57;;;;;;;9.70;3.83;;;15.60;80.90;;;;;;4941780;29;20103;-94
2023/09/14 03:49:22;;;;;;;6.50;3.60;;;15.60;81.00;;;;;;4942716;29;20497;-95
2023/09/14 03:51:48;;;;;;;7.63;3.45;;;15.50;81.00;;;;;;4942507;29;20134;-94
2023/09/14 03:54:32;;;;;;;5.30;3.20;;;15.50;81.10;;;;;;4958529;29;20040;-95
2023/09/14 03:56:57;;;;;;;7.10;3.17;;;15.30;81.30;;;;;;4942167;29;20047;-94
2023/09/14 03:59:23;;;;;;;7.10;4.03;;;15.40;81.10;;;;;;4941971;29;20097;-94
2023/09/14 04:01:49;;;;;;;5.40;3.30;;;15.30;81.20;;;;;;4944145;29;20039;-94
2023/09/14 04:04:14;;;;;;;6.95;3.58;;;15.20;81.30;;;;;;4943292;29;20074;-95
2023/09/14 04:06:40;;;;;;;5.78;3.60;;;15.20;81.50;;;;;;4941590;29;20035;-95
2023/09/14 04:09:06;;;;;;;8.45;3.85;;;15.20;81.60;;;;;;4942067;29;20090;-95
2023/09/14 04:11:32;;;;;;;7.03;3.67;;;15.20;81.60;;;;;;4944358;29;20043;-95
2023/09/14 04:13:58;;;;;;;5.60;3.50;;;15.20;81.60;;;;;;4945559;28;20078;-95
2023/09/14 04:16:28;;;;;;;6.70;3.63;;;15.20;81.60;;;;;;4962248;28;20043;-94
2023/09/14 04:18:54;;;;;;;7.13;3.88;;;15.20;81.50;;;;;;4947144;28;20128;-95
2023/09/14 04:21:20;;;;;;;6.30;3.20;;;15.20;81.60;;;;;;4947002;28;20046;-95
2023/09/14 04:23:45;;;;;;;6.30;4.00;;;15.20;81.60;;;;;;4963005;28;20077;-96
2023/09/14 04:26:11;;;;;;;5.90;3.53;;;15.20;81.70;;;;;;4945416;28;20045;-94
2023/09/14 04:28:36;;;;;;;7.32;3.80;;;15.20;81.70;;;;;;4960446;28;20160;-95
2023/09/14 04:31:04;;;;;;;8.65;3.92;;;15.20;81.70;;;;;;4945950;28;20043;-95
2023/09/14 04:33:51;;;;;;;7.50;3.53;;;15.20;81.70;;;;;;4961464;28;20051;-95
2023/09/14 04:36:26;;;;;;;6.35;3.63;;;15.00;81.80;;;;;;4960813;28;20049;-95
2023/09/14 04:38:52;;;;;;;7.97;4.10;;;15.10;81.80;;;;;;4960938;28;20078;-94
2023/09/14 04:41:17;;;;;;;10.43;3.75;;;15.20;81.60;;;;;;4946150;28;20106;-96
2023/09/14 04:43:51;;;;;;;10.07;3.78;;;15.10;81.70;;;;;;4961346;28;20046;-95
2023/09/14 04:46:17;;;;;;;4.97;3.58;;;15.10;81.70;;;;;;4961593;28;20198;-95
2023/09/14 04:48:43;;;;;;;7.68;3.50;;;15.10;81.60;;;;;;4945240;28;20082;-96
2023/09/14 04:51:08;;;;;;;6.60;3.08;;;15.10;81.70;;;;;;4944608;28;20133;-96
2023/09/14 04:53:34;;;;;;;7.47;3.42;;;15.20;81.70;;;;;;4945446;28;20042;-95
2023/09/14 04:56:45;;;;;;;6.22;3.40;;;15.20;81.60;;;;;;4945146;28;20134;-95
2023/09/14 04:59:11;;;;;;;5.80;3.70;;;15.10;81.60;;;;;;4942295;28;20069;-95
2023/09/14 05:01:36;;;;;;;5.78;3.10;;;15.20;81.10;;;;;;4958030;28;20038;-95
2023/09/14 05:04:02;;;;;;;5.43;3.80;;;15.20;81.10;;;;;;4940758;28;20050;-95
2023/09/14 05:06:30;;;;;;;8.63;3.67;;;15.20;81.10;;;;;;4957949;28;20428;-94
2023/09/14 05:08:57;;;;;;;6.45;3.53;;;15.20;81.10;;;;;;4941839;28;20035;-94
2023/09/14 05:11:23;;;;;;;7.82;3.70;;;15.20;81.00;;;;;;4940839;28;20074;-95
2023/09/14 05:13:49;;;;;;;5.65;3.40;;;15.20;81.00;;;;;;4958439;28;20085;-93
2023/09/14 05:16:21;;;;;;;10.35;3.20;;;15.20;81.00;;;;;;4943652;28;20047;-95
2023/09/14 05:18:49;;;;;;;9.32;3.78;;;15.10;81.20;;;;;;4943942;28;20047;-95
2023/09/14 05:21:15;;;;;;;7.30;3.70;;;15.20;81.10;;;;;;4944836;28;20109;-95
2023/09/14 05:23:40;;;;;;;6.20;3.85;;;15.20;81.00;;;;;;4944772;28;20051;-95
2023/09/14 05:26:06;;;;;;;7.82;4.15;;;15.20;80.90;;;;;;4945037;28;20400;-96
2023/09/14 05:28:32;;;;;;;8.40;3.53;;;15.20;81.00;;;;;;4944203;28;20051;-95
2023/09/14 05:30:57;;;;;;;7.43;4.28;;;15.20;81.20;;;;;;4944246;28;20076;-95
2023/09/14 05:33:23;;;;;;;8.38;3.72;;;15.10;81.20;;;;;;4943344;28;20038;-94
2023/09/14 05:35:50;;;;;;;5.85;2.83;;;15.20;81.20;;;;;;4942728;28;20034;-94
2023/09/14 05:38:16;;;;;;;6.18;2.90;;;15.10;81.00;;;;;;4942099;28;20053;-96
2023/09/14 05:40:42;;;;;;;6.47;2.85;;;15.10;80.70;;;;;;4941757;28;20045;-95
2023/09/14 05:43:07;;;;;;;5.35;2.88;;;15.10;80.60;;;;;;4941373;28;20042;-95
2023/09/14 05:45:33;;;;;;;5.82;2.70;;;15.10;80.70;;;;;;4941715;28;20050;-95
2023/09/14 05:48:23;;;;;;;6.82;3.10;;;15.10;80.70;;;;;;4944287;28;20047;-95
2023/09/14 05:50:48;;;;;;;4.82;2.97;;;15.10;80.90;;;;;;4942088;28;20078;-96
2023/09/14 05:53:14;;;;;;;4.07;2.13;;;15.20;80.60;;;;;;4939851;28;20042;-95
2023/09/14 05:55:39;;;;;;;9.00;2.58;;;15.20;80.60;;;;;;4957063;28;20500;-95
2023/09/14 05:58:06;;;;;;;3.45;2.28;;;15.20;80.60;;;;;;4943357;28;20043;-95
2023/09/14 06:00:32;;;;;;;8.02;2.20;;;15.20;80.60;;;;;;4942155;28;20047;-95
2023/09/14 06:02:58;;;;;;;4.65;2.45;;;15.20;80.80;;;;;;4941953;28;20043;-96
2023/09/14 06:05:24;;;;;;;5.05;2.53;;;15.20;80.80;;;;;;4942364;28;20408;-95
2023/09/14 06:07:50;;;;;;;6.13;2.40;;;15.20;80.90;;;;;;4942734;28;20039;-95
2023/09/14 06:10:21;;;;;;;4.15;2.85;;;15.30;80.90;;;;;;4943326;28;20050;-95
2023/09/14 06:12:47;;;;;;;6.93;3.28;;;15.20;80.80;;;;;;4943245;28;20053;-95
2023/09/14 06:15:17;;;;;;;4.82;2.80;;;15.20;80.70;;;;;;4939225;29;20055;-95
2023/09/14 06:17:43;;;;;;;4.05;2.50;;;15.20;80.80;;;;;;4939981;29;20047;-95
2023/09/14 06:20:10;;;;;;;5.07;3.28;;;15.30;80.90;;;;;;4940027;29;20062;-95
2023/09/14 06:22:40;;;;;;;4.90;3.15;;;15.20;81.10;;;;;;4939026;29;20051;-96
2023/09/14 06:25:10;;;;;;;6.13;3.35;;;15.30;81.20;;;;;;4939456;29;20046;-95
2023/09/14 06:27:36;;;;;;;7.60;3.30;;;15.30;81.20;;;;;;4939406;29;20050;-95
2023/09/14 06:30:04;;;;;;;5.22;3.05;;;15.40;81.20;;;;;;4939322;29;20075;-94
2023/09/14 06:32:47;;;;;;;3.75;2.75;;;15.50;81.30;;;;;;4939406;29;20054;-95
2023/09/14 06:35:15;;;;;;;7.97;3.08;;;15.40;81.40;;;;;;4939027;29;20105;-95
2023/09/14 06:37:41;;;;;;;3.67;2.88;;;15.60;81.20;;;;;;4938975;29;20058;-95
2023/09/14 06:40:08;;;;;;;3.53;2.90;;;15.70;81.20;;;;;;4938667;28;20191;-95
2023/09/14 06:42:34;;;;;;;6.00;2.65;;;15.70;81.20;;;;;;4943205;29;20063;-95
2023/09/14 06:45:01;;;;;;;5.60;2.83;;;15.80;81.00;;;;;;4942933;29;20050;-95
2023/09/14 06:47:26;;;;;;;4.60;3.17;;;15.90;80.90;;;;;;4942384;29;20083;-95
2023/09/14 06:49:52;;;;;;;7.28;3.63;;;15.90;80.90;;;;;;4942641;29;20126;-95
2023/09/14 06:52:17;;;;;;;8.77;3.70;;;16.00;80.80;;;;;;4942599;29;20040;-95
2023/09/14 06:54:46;;;;;;;5.22;3.00;;;16.00;80.70;;;;;;4943672;29;20460;-95
2023/09/14 06:57:28;;;;;;;6.20;3.28;;;16.00;80.90;;;;;;4944134;29;20043;-95
2023/09/14 06:59:56;;;;;;;6.72;3.50;;;15.90;81.00;;;;;;4943086;29;20047;-95
2023/09/14 07:02:21;;;;;;;8.25;3.70;;;16.20;80.70;;;;;;4943431;29;20043;-95
2023/09/14 07:04:47;;;;;;;6.72;3.88;;;16.20;80.60;;;;;;4943792;29;20525;-95
2023/09/14 07:07:36;;;;;;;5.07;3.30;;;16.30;80.50;;;;;;4943368;29;20043;-95
2023/09/14 07:10:22;;;;;;;5.65;3.42;;;16.30;80.50;;;;;;4943163;29;20098;-95
2023/09/14 07:12:55;;;;;;;5.88;3.17;;;16.30;80.40;;;;;;4942991;29;20054;-94
2023/09/14 07:15:21;;;;;;;5.60;3.55;;;16.40;80.40;;;;;;4943133;29;20054;-95
2023/09/14 07:17:47;;;;;;;5.32;2.88;;;16.50;80.30;;;;;;4943089;29;20113;-95
2023/09/14 07:20:13;;;;;;;7.22;3.25;;;16.60;80.20;;;;;;4943877;29;20086;-95
2023/09/14 07:22:39;;;;;;;5.00;3.13;;;16.70;80.40;;;;;;4943217;29;20043;-96
2023/09/14 07:25:18;;;;;;;7.38;3.60;;;16.80;80.40;;;;;;4949187;29;20050;-96
2023/09/14 07:27:47;;;;;;;6.93;3.15;;;16.80;80.40;;;;;;4947038;29;20141;-96
2023/09/14 07:30:14;;;;;;;6.95;3.20;;;17.00;80.10;;;;;;4943213;29;20043;-96
2023/09/14 07:32:40;;;;;;;4.10;2.70;;;17.10;80.30;;;;;;4938523;29;20421;-96
2023/09/14 07:35:11;;;;;;;5.60;2.70;;;17.20;80.20;;;;;;4939444;29;20051;-96
2023/09/14 07:37:37;;;;;;;10.55;2.72;;;17.30;79.90;;;;;;4942852;29;20489;-96
2023/09/14 07:40:30;;;;;;;4.63;2.35;;;17.50;79.60;;;;;;4945949;29;20051;-96
2023/09/14 07:42:55;;;;;;;6.85;2.58;;;17.60;79.60;;;;;;4957407;29;20058;-96
2023/09/14 07:45:24;;;;;;;3.47;2.25;;;17.80;79.20;;;;;;4939344;29;20055;-95
2023/09/14 07:47:49;;;;;;;4.22;2.15;;;17.90;79.50;;;;;;4949688;29;20047;-95
2023/09/14 07:50:15;;;;;;;6.82;2.00;;;18.00;79.30;;;;;;4940576;29;20515;-96
2023/09/14 07:52:51;;;;;;;4.10;2.10;;;18.00;79.30;;;;;;4952784;28;20133;-96
2023/09/14 07:55:55;;;;;;;5.80;1.90;;;18.20;79.40;;;;;;4946026;29;20077;-96
2023/09/14 07:58:26;;;;;;;5.15;2.03;;;18.20;79.40;;;;;;4946135;29;20332;-96
2023/09/14 08:00:52;;;;;;;4.25;1.67;;;18.40;78.50;;;;;;4947915;29;20047;-96
2023/09/14 08:06:52;;;;;;;4.07;1.80;;;18.60;78.00;;;;;;4946097;29;20058;-96
2023/09/14 08:09:21;;;;;;;6.65;1.90;;;18.70;77.90;;;;;;4941468;29;20047;-95
2023/09/14 08:11:55;;;;;;;4.80;2.42;;;18.90;77.40;;;;;;4944069;29;20047;-96
2023/09/14 08:14:23;;;;;;;5.55;1.92;;;18.90;77.50;;;;;;4948866;28;20087;-96
2023/09/14 08:20:09;;;;;;;5.88;1.73;;;19.20;76.80;;;;;;4964568;29;20059;-96
2023/09/14 08:22:49;;;;;;;4.68;1.55;;;19.30;75.40;;;;;;4931901;28;20043;-96
2023/09/14 08:25:28;;;;;;;4.25;1.48;;;19.40;75.10;;;;;;4945172;28;20058;-96
2023/09/14 08:27:57;;;;;;;3.88;1.63;;;19.60;74.20;;;;;;4945600;28;20125;-95
2023/09/14 08:30:28;;;;;;;4.85;2.00;;;19.70;73.80;;;;;;4946241;28;20086;-96
2023/09/14 08:33:20;;;;;;;5.25;1.70;;;19.80;73.50;;;;;;4944983;28;20047;-96
2023/09/14 08:35:55;;;;;;;4.30;1.70;;;19.90;73.50;;;;;;4943411;28;20039;-96
2023/09/14 08:38:26;;;;;;;5.03;1.70;;;20.00;72.60;;;;;;4946343;28;20051;-96
2023/09/14 08:41:37;;;;;;;4.13;1.75;;;20.10;73.10;;;;;;4944388;28;20105;-96
2023/09/14 08:44:04;;;;;;;7.00;1.92;;;20.10;73.00;;;;;;4944472;28;20134;-95
2023/09/14 08:46:40;;;;;;;6.03;2.10;;;20.40;72.60;;;;;;4949009;28;20396;-96
2023/09/14 08:49:34;;;;;;;5.20;1.58;;;20.50;72.50;;;;;;4944509;28;20061;-96
2023/09/14 08:52:51;;;;;;;7.93;1.77;;;20.50;72.80;;;;;;4944397;28;20034;-96
2023/09/14 08:55:19;;;;;;;5.45;2.00;;;20.70;72.00;;;;;;4889278;29;20035;-96
2023/09/14 08:57:51;;;;;;;7.13;2.05;;;20.90;71.60;;;;;;4906685;29;20057;-96
2023/09/14 09:00:20;;;;;;;6.80;2.00;;;20.90;70.90;;;;;;4908544;29;20044;-95
2023/09/14 09:02:58;;;;;;;4.63;1.52;;;20.90;71.00;;;;;;4918441;29;20056;-94
2023/09/14 09:05:43;;;;;;;8.45;3.00;;;21.00;70.40;;;;;;4894401;29;20036;-95
2023/09/14 09:08:44;;;;;;;7.75;2.17;;;21.00;70.70;;;;;;4888975;29;20055;-96
2023/09/14 09:11:10;;;;;;;5.05;1.88;;;21.20;70.60;;;;;;4887712;29;20120;-96
2023/09/14 09:14:11;;;;;;;5.05;1.65;;;21.40;70.00;;;;;;4903982;29;20422;-96
2023/09/14 09:17:04;;;;;;;7.57;1.88;;;21.40;69.70;;;;;;4887178;29;20095;-96
2023/09/14 09:20:22;;;;;;;6.97;1.83;;;21.50;69.60;;;;;;4890711;29;20059;-96
2023/09/14 09:23:00;;;;;;;6.88;2.00;;;21.60;69.70;;;;;;4914732;29;20044;-95
2023/09/14 09:26:00;;;;;;;7.32;1.90;;;21.70;69.10;;;;;;4913711;29;20091;-96
2023/09/14 09:32:03;;;;;;;9.13;2.50;;;21.90;68.70;;;;;;4929769;29;20056;-96
2023/09/14 09:34:33;;;;;;;4.93;1.63;;;21.90;68.10;;;;;;4930161;29;20063;-96
2023/09/14 09:36:59;;;;;;;7.13;1.92;;;21.80;68.30;;;;;;4937001;29;20058;-95
2023/09/14 09:39:39;;;;;;;5.10;1.80;;;21.80;67.60;;;;;;4947166;29;20131;-96
2023/09/14 09:42:06;;;;;;;9.27;2.20;;;21.90;67.00;;;;;;4939730;29;20047;-93
2023/09/14 09:44:32;;;;;;;4.78;1.88;;;22.00;67.60;;;;;;4946062;29;20055;-95
2023/09/14 09:46:58;;;;;;;6.95;2.00;;;22.10;66.80;;;;;;4943818;29;20051;-96
2023/09/14 09:49:25;;;;;;;6.30;2.03;;;22.20;66.50;;;;;;4952834;29;20051;-95
2023/09/14 09:51:52;;;;;;;11.35;2.17;;;22.30;65.80;;;;;;4938644;29;20089;-95
2023/09/14 09:58:02;;;;;;;9.82;2.00;;;22.30;65.90;;;;;;4957592;29;20078;-96
2023/09/14 10:00:37;;;;;;;7.30;2.10;;;22.50;65.60;;;;;;4937583;29;20055;-96
2023/09/14 10:03:03;;;;;;;6.05;1.85;;;22.60;65.10;;;;;;4942918;29;20086;-96
2023/09/14 10:05:39;;;;;;;8.07;2.10;;;22.50;65.90;;;;;;4946761;29;20047;-96
2023/09/14 10:08:33;;;;;;;6.50;2.28;;;22.70;66.10;;;;;;4941377;29;20047;-96
2023/09/14 10:10:59;;;;;;;6.10;1.95;;;22.60;65.50;;;;;;4921076;29;20039;-96
2023/09/14 10:13:32;;;;;;;6.53;1.80;;;22.60;65.90;;;;;;4944163;29;20082;-94
2023/09/14 10:16:20;;;;;;;7.75;2.03;;;22.50;66.00;;;;;;4944932;29;20117;-96
2023/09/14 10:18:53;;;;;;;7.50;2.33;;;22.60;66.10;;;;;;4949005;28;20077;-96
2023/09/14 10:21:46;;;;;;;4.47;1.50;;;23.00;65.20;;;;;;4948355;29;20143;-96
2023/09/14 10:24:13;;;;;;;7.85;1.98;;;23.10;65.60;;;;;;4939055;29;20054;-94
2023/09/14 10:26:39;;;;;;;4.38;2.00;;;23.30;64.50;;;;;;4937546;29;20047;-95
2023/09/14 10:29:09;;;;;;;4.35;1.75;;;23.40;64.20;;;;;;4937970;29;20051;-93
2023/09/14 10:31:35;;;;;;;6.28;2.13;;;23.40;63.60;;;;;;4938347;29;20181;-95
2023/09/14 10:34:03;;;;;;;6.78;1.98;;;23.60;62.90;;;;;;4935536;29;20047;-94
2023/09/14 10:36:34;;;;;;;6.95;2.00;;;23.70;63.40;;;;;;4938990;29;20047;-94
2023/09/14 10:39:01;;;;;;;7.28;2.00;;;23.70;63.30;;;;;;4939887;29;20035;-95
2023/09/14 10:41:30;;;;;;;5.47;2.10;;;23.80;63.70;;;;;;4949574;29;20039;-96
2023/09/14 10:44:00;;;;;;;8.10;1.80;;;24.00;63.40;;;;;;4941491;29;20622;-96
2023/09/14 10:46:47;;;;;;;4.97;2.00;;;24.20;62.30;;;;;;4946432;29;20111;-96
2023/09/14 10:50:03;;;;;;;5.07;1.98;;;24.20;61.60;;;;;;4946687;29;20056;-95
2023/09/14 10:52:35;;;;;;;6.30;1.92;;;24.20;61.00;;;;;;4892260;29;20662;-95
2023/09/14 10:55:09;;;;;;;7.22;2.22;;;24.20;60.80;;;;;;4943799;29;20429;-96
2023/09/14 10:57:42;;;;;;;4.25;1.80;;;23.90;61.80;;;;;;4953965;29;20425;-95
2023/09/14 11:00:31;;;;;;;5.60;2.20;;;23.60;62.50;;;;;;4939771;29;20056;-95
2023/09/14 11:02:57;;;;;;;5.30;1.95;;;23.40;62.40;;;;;;4938848;29;20047;-94
2023/09/14 11:05:48;;;;;;;5.70;2.15;;;23.20;62.50;;;;;;4939553;29;20051;-95
2023/09/14 11:08:15;;;;;;;6.40;2.38;;;23.00;62.90;;;;;;4939256;29;20085;-95
2023/09/14 11:11:00;;;;;;;6.00;2.05;;;23.10;62.70;;;;;;4941888;29;20051;-96
2023/09/14 11:13:33;;;;;;;5.07;1.83;;;23.20;62.20;;;;;;4937364;29;20039;-94
2023/09/14 11:16:42;;;;;;;5.70;2.08;;;23.40;62.00;;;;;;4950577;29;20066;-95
2023/09/14 11:19:40;;;;;;;3.35;1.80;;;23.20;61.50;;;;;;4898425;29;20083;-95
2023/09/14 11:22:15;;;;;;;4.47;1.80;;;23.30;61.10;;;;;;4928358;28;20048;-94
2023/09/14 11:24:41;;;;;;;6.53;2.10;;;23.50;61.30;;;;;;4936063;29;20051;-94
2023/09/14 11:27:36;;;;;;;3.95;1.60;;;23.60;61.20;;;;;;4940008;29;20055;-95
2023/09/14 11:30:30;;;;;;;3.72;2.08;;;23.40;61.80;;;;;;4948096;29;20054;-95
2023/09/14 11:33:00;;;;;;;5.72;2.10;;;23.40;61.40;;;;;;4932188;29;20478;-95
2023/09/14 11:35:56;;;;;;;5.60;1.98;;;23.70;61.50;;;;;;4942652;29;20603;-95
2023/09/14 11:39:26;;;;;;;4.05;1.90;;;23.80;60.30;;;;;;4946922;29;20055;-96
2023/09/14 11:41:52;;;;;;;5.95;2.33;;;24.10;59.70;;;;;;4938971;29;20059;-94
2023/09/14 11:44:53;;;;;;;3.22;2.00;;;24.30;58.90;;;;;;4941967;29;20501;-94
2023/09/14 11:47:30;;;;;;;5.85;2.33;;;23.90;60.20;;;;;;4942635;29;20059;-94
2023/09/14 11:50:04;;;;;;;8.20;2.35;;;23.80;59.70;;;;;;4944914;29;20437;-95
2023/09/14 11:52:35;;;;;;;4.65;2.05;;;23.50;60.20;;;;;;4940259;29;20051;-95
2023/09/14 11:55:04;;;;;;;5.47;2.20;;;23.30;60.90;;;;;;4942889;29;20051;-96
2023/09/14 11:57:38;;;;;;;4.28;2.22;;;23.20;61.50;;;;;;4943515;29;20103;-95
2023/09/14 12:00:05;;;;;;;5.18;1.98;;;23.10;61.80;;;;;;4946730;29;20294;-95
2023/09/14 12:02:34;;;;;;;6.00;2.15;;;23.10;61.50;;;;;;4940805;29;20390;-94
2023/09/14 12:05:01;;;;;;;6.22;2.10;;;23.10;61.10;;;;;;4923118;29;20402;-96
2023/09/14 12:07:31;;;;;;;4.60;2.33;;;23.20;60.90;;;;;;4938179;29;20050;-95
2023/09/14 12:09:59;;;;;;;6.00;2.63;;;23.20;61.50;;;;;;4941561;29;20054;-94
2023/09/14 12:12:46;;;;;;;5.38;2.00;;;23.30;61.40;;;;;;4946714;29;20051;-96
2023/09/14 12:15:30;;;;;;;7.65;2.22;;;23.00;61.90;;;;;;4956377;29;20086;-95
2023/09/14 12:17:58;;;;;;;5.07;2.00;;;23.10;61.80;;;;;;4939249;29;20039;-94
2023/09/14 12:20:24;;;;;;;6.72;2.30;;;23.10;63.10;;;;;;4941208;28;20082;-94
2023/09/14 12:22:50;;;;;;;6.15;2.45;;;23.40;62.60;;;;;;4941596;28;20078;-94
2023/09/14 12:25:18;;;;;;;5.40;2.45;;;24.00;61.50;;;;;;4941845;28;20125;-94
2023/09/14 12:27:44;;;;;;;4.38;2.10;;;24.40;60.60;;;;;;4941203;28;20043;-94
2023/09/14 12:30:11;;;;;;;3.90;2.08;;;24.70;59.60;;;;;;4941507;28;20047;-93
2023/09/14 12:32:40;;;;;;;6.50;2.33;;;25.00;58.10;;;;;;4941464;28;20078;-92
2023/09/14 12:35:08;;;;;;;6.32;2.90;;;25.20;58.00;;;;;;4942548;28;20056;-93
2023/09/14 12:37:42;;;;;;;3.90;2.00;;;25.40;56.80;;;;;;4949708;28;20133;-95
2023/09/14 12:40:27;;;;;;;5.90;2.30;;;25.50;56.00;;;;;;4943896;28;20047;-94
2023/09/14 12:43:27;;;;;;;7.13;2.38;;;25.30;55.50;;;;;;4944879;28;20042;-94
2023/09/14 12:46:23;;;;;;;6.10;2.35;;;25.30;56.20;;;;;;4873944;29;20049;-95
2023/09/14 12:48:49;;;;;;;3.72;2.10;;;25.00;55.60;;;;;;4935556;28;20063;-95
2023/09/14 12:51:21;;;;;;;6.60;2.67;;;24.80;55.50;;;;;;4940876;28;20096;-94
2023/09/14 12:53:48;;;;;;;5.63;2.20;;;24.40;56.40;;;;;;4951303;28;20078;-92
2023/09/14 12:56:14;;;;;;;4.35;2.40;;;24.40;57.00;;;;;;4952373;28;20082;-93
2023/09/14 12:58:41;;;;;;;4.65;2.10;;;24.30;57.50;;;;;;4941369;28;20043;-93
2023/09/14 13:01:09;;;;;;;6.43;2.60;;;24.30;59.30;;;;;;4941236;28;20064;-93
2023/09/14 13:03:35;;;;;;;8.45;2.40;;;24.60;58.20;;;;;;4940559;28;20089;-93
2023/09/14 13:06:03;;;;;;;5.28;2.38;;;25.10;57.70;;;;;;4940635;28;20053;-92
2023/09/14 13:08:29;;;;;;;8.55;5.60;;;25.50;57.10;;;;;;4956402;28;20055;-93
2023/09/14 13:10:54;;;;;;;5.75;3.13;;;25.80;56.60;;;;;;4940807;28;20039;-92
2023/09/14 13:13:21;;;;;;;5.10;2.50;;;26.20;55.70;;;;;;4956270;28;20043;-92
2023/09/14 13:15:46;;;;;;;6.60;3.08;;;26.40;54.00;;;;;;4940689;28;20142;-94
2023/09/14 13:18:14;;;;;;;6.22;2.60;;;26.30;53.10;;;;;;4940363;28;20133;-93
2023/09/14 13:21:07;;;;;;;6.97;3.03;;;26.10;52.80;;;;;;4942727;28;20059;-94
2023/09/14 13:23:59;;;;;;;5.97;2.58;;;26.00;54.50;;;;;;4940357;28;20054;-93
2023/09/14 13:26:42;;;;;;;5.82;2.42;;;26.10;53.10;;;;;;4940179;28;20077;-93
2023/09/14 13:29:17;;;;;;;5.75;2.33;;;26.20;53.20;;;;;;4943321;28;20129;-95